createdAt,value
2023-02-11T00:02:35.000Z,32.56
2023-02-11T00:12:35.000Z,29.08
2023-02-11T00:17:34.000Z,29.69
2023-02-11T00:22:35.000Z,27.54
2023-02-11T00:27:34.000Z,24.34
2023-02-11T00:32:35.000Z,27.53
2023-02-11T00:37:35.000Z,26.05
2023-02-11T00:42:35.000Z,24.38
2023-02-11T00:47:35.000Z,24.6
2023-02-11T00:52:35.000Z,24.76
2023-02-11T00:57:35.000Z,22.85
2023-02-11T01:02:34.000Z,22.59
2023-02-11T01:07:35.000Z,22.59
2023-02-11T01:12:35.000Z,20.58
2023-02-11T01:17:35.000Z,20.3
2023-02-11T01:22:34.000Z,21.13
2023-02-11T01:27:35.000Z,21.21
2023-02-11T01:32:35.000Z,21.55
2023-02-11T01:37:35.000Z,21.69
2023-02-11T01:42:34.000Z,21.01
2023-02-11T01:47:35.000Z,22.98
2023-02-11T01:52:34.000Z,22.56
2023-02-11T01:57:35.000Z,22.36
2023-02-11T02:02:35.000Z,20.84
2023-02-11T02:07:35.000Z,20.93
2023-02-11T02:12:34.000Z,22.47
2023-02-11T02:17:35.000Z,22.47
2023-02-11T02:22:35.000Z,21.54
2023-02-11T02:27:35.000Z,20.93
2023-02-11T02:32:35.000Z,20.86
2023-02-11T02:37:34.000Z,20.05
2023-02-11T02:42:35.000Z,20.04
2023-02-11T02:47:34.000Z,19.31
2023-02-11T02:52:35.000Z,18.01
2023-02-11T02:57:35.000Z,18.17
2023-02-11T03:02:35.000Z,17.95
2023-02-11T03:07:35.000Z,17.44
2023-02-11T03:12:35.000Z,15.97
2023-02-11T03:17:35.000Z,14.83
2023-02-11T03:22:35.000Z,14.1
2023-02-11T03:27:35.000Z,13.48
2023-02-11T03:32:35.000Z,13.48
2023-02-11T03:37:35.000Z,12.64
2023-02-11T03:42:35.000Z,11.54
2023-02-11T03:47:35.000Z,12.59
2023-02-11T03:52:34.000Z,12.68
2023-02-11T03:57:35.000Z,12.19
2023-02-11T04:02:34.000Z,12.57
2023-02-11T04:07:34.000Z,13.56
2023-02-11T04:12:35.000Z,12.81
2023-02-11T04:17:34.000Z,11.02
2023-02-11T04:22:35.000Z,10.81
2023-02-11T04:27:34.000Z,11.01
2023-02-11T04:32:35.000Z,10.04
2023-02-11T04:42:35.000Z,10.57
2023-02-11T04:47:35.000Z,10.1
2023-02-11T04:52:34.000Z,9.83
2023-02-11T04:57:35.000Z,10.75
2023-02-11T05:02:35.000Z,10.54
2023-02-11T05:07:35.000Z,12.13
2023-02-11T05:12:35.000Z,10.82
2023-02-11T05:17:34.000Z,12.02
2023-02-11T05:22:35.000Z,10.71
2023-02-11T05:27:34.000Z,10.36
2023-02-11T05:32:35.000Z,10.36
2023-02-11T05:37:34.000Z,9.82
2023-02-11T05:42:35.000Z,10.27
2023-02-11T05:47:35.000Z,10.48
2023-02-11T05:52:35.000Z,10.58
2023-02-11T05:57:35.000Z,11.13
2023-02-11T06:02:35.000Z,8.89
2023-02-11T06:07:35.000Z,7.19
2023-02-11T06:12:35.000Z,8.52
2023-02-11T06:17:35.000Z,8.78
2023-02-11T06:22:34.000Z,7.75
2023-02-11T06:27:35.000Z,7.34
2023-02-11T06:32:54.000Z,7.44
2023-02-11T06:42:35.000Z,8.81
2023-02-11T06:47:34.000Z,9.29
2023-02-11T06:52:35.000Z,9.76
2023-02-11T06:57:34.000Z,10.23
2023-02-11T07:02:35.000Z,10.47
2023-02-11T07:07:35.000Z,11.62
2023-02-11T07:12:35.000Z,11.59
2023-02-11T07:17:35.000Z,12.32
2023-02-11T07:22:35.000Z,12.32
2023-02-11T07:27:35.000Z,14.34
2023-02-11T07:32:34.000Z,14.88
2023-02-11T07:37:35.000Z,14.63
2023-02-11T07:42:35.000Z,13.61
2023-02-11T07:47:35.000Z,13.74
2023-02-11T07:52:34.000Z,13.92
2023-02-11T07:57:35.000Z,13.58
2023-02-11T08:02:34.000Z,13.73
2023-02-11T08:07:35.000Z,13.72
2023-02-11T08:12:35.000Z,12.58
2023-02-11T08:17:34.000Z,13.64
2023-02-11T08:22:35.000Z,14.87
2023-02-11T08:27:34.000Z,15.04
2023-02-11T08:32:34.000Z,15.03
2023-02-11T08:37:35.000Z,15.03
2023-02-11T08:42:34.000Z,15.52
2023-02-11T08:47:35.000Z,18.23
2023-02-11T08:52:35.000Z,21.28
2023-02-11T08:57:35.000Z,20.59
2023-02-11T09:02:34.000Z,20.45
2023-02-11T09:07:35.000Z,20.91
2023-02-11T09:12:35.000Z,24.44
2023-02-11T09:17:34.000Z,22.52
2023-02-11T09:22:35.000Z,16.72
2023-02-11T09:27:34.000Z,16.92
2023-02-11T09:32:35.000Z,15.4
2023-02-11T09:37:35.000Z,15.49
2023-02-11T09:42:34.000Z,17.29
2023-02-11T09:47:35.000Z,18.39
2023-02-11T09:52:34.000Z,18.39
2023-02-11T10:02:34.000Z,19.1
2023-02-11T10:07:34.000Z,20.01
2023-02-11T10:12:35.000Z,20.16
2023-02-11T10:17:33.000Z,18.33
2023-02-11T10:22:35.000Z,16.84
2023-02-11T10:27:35.000Z,17.64
2023-02-11T10:32:34.000Z,19.05
2023-02-11T10:37:34.000Z,19.05
2023-02-11T10:42:35.000Z,17.59
2023-02-11T10:47:35.000Z,19.44
2023-02-11T10:52:34.000Z,18.39
2023-02-11T10:57:35.000Z,20.76
2023-02-11T11:02:34.000Z,23.27
2023-02-11T11:07:34.000Z,21.81
2023-02-11T11:12:35.000Z,21.43
2023-02-11T11:17:35.000Z,21.15
2023-02-11T11:22:34.000Z,20.66
2023-02-11T11:27:35.000Z,20.44
2023-02-11T11:32:34.000Z,17.96
2023-02-11T11:37:35.000Z,17.5
2023-02-11T11:42:35.000Z,16.56
2023-02-11T11:47:35.000Z,16.33
2023-02-11T11:52:35.000Z,16.33
2023-02-11T11:57:35.000Z,16.25
2023-02-11T12:02:34.000Z,17.19
2023-02-11T12:07:36.000Z,17.03
2023-02-11T12:12:35.000Z,16.32
2023-02-11T12:17:35.000Z,17.97
2023-02-11T12:22:35.000Z,17.96
2023-02-11T12:27:34.000Z,18.26
2023-02-11T12:32:35.000Z,18.58
2023-02-11T12:37:35.000Z,17.86
2023-02-11T12:42:35.000Z,18.56
2023-02-11T12:47:34.000Z,18.02
2023-02-11T12:52:35.000Z,18.1
2023-02-11T13:07:35.000Z,19
2023-02-11T13:12:35.000Z,16.7
2023-02-11T13:17:35.000Z,18.17
2023-02-11T13:22:35.000Z,17.72
2023-02-11T13:27:34.000Z,17.32
2023-02-11T13:32:35.000Z,17.43
2023-02-11T13:37:34.000Z,18.08
2023-02-11T13:42:35.000Z,19.27
2023-02-11T13:47:34.000Z,18.16
2023-02-11T13:52:35.000Z,20
2023-02-11T13:57:34.000Z,20.53
2023-02-11T14:02:35.000Z,19.7
2023-02-11T14:07:35.000Z,19.78
2023-02-11T14:12:35.000Z,19.07
2023-02-11T14:17:35.000Z,19.07
2023-02-11T14:22:35.000Z,19.44
2023-02-11T14:27:35.000Z,20.51
2023-02-11T14:32:34.000Z,21.07
2023-02-11T14:37:35.000Z,21.33
2023-02-11T14:42:34.000Z,23.72
2023-02-11T14:47:35.000Z,21.88
2023-02-11T14:52:35.000Z,20.42
2023-02-11T14:57:35.000Z,22.58
2023-02-11T15:02:35.000Z,23.28
2023-02-11T15:07:35.000Z,23.37
2023-02-11T15:17:35.000Z,23.94
2023-02-11T15:22:34.000Z,22.85
2023-02-11T15:27:35.000Z,22.32
2023-02-11T15:32:35.000Z,23.32
2023-02-11T15:37:35.000Z,23.32
2023-02-11T15:42:35.000Z,23.02
2023-02-11T15:47:35.000Z,22.92
2023-02-11T15:52:35.000Z,22.17
2023-02-11T15:57:34.000Z,22.71
2023-02-11T16:02:35.000Z,23.4
2023-02-11T16:07:35.000Z,23.79
2023-02-11T16:12:35.000Z,23.91
2023-02-11T16:17:34.000Z,22.29
2023-02-11T16:22:35.000Z,22.34
2023-02-11T16:27:35.000Z,22.39
2023-02-11T16:32:35.000Z,22.63
2023-02-11T16:37:34.000Z,22.23
2023-02-11T16:42:35.000Z,22.28
2023-02-11T16:47:35.000Z,22.28
2023-02-11T16:52:35.000Z,22.28
2023-02-11T16:57:34.000Z,21.77
2023-02-11T17:02:35.000Z,21.32
2023-02-11T17:07:35.000Z,21.37
2023-02-11T17:12:35.000Z,20.96
2023-02-11T17:17:35.000Z,20.5
2023-02-11T17:22:35.000Z,21.2
2023-02-11T17:27:35.000Z,20.86
2023-02-11T17:32:35.000Z,19.55
2023-02-11T17:37:35.000Z,21.78
2023-02-11T17:42:35.000Z,18.91
2023-02-11T17:52:35.000Z,22.64
2023-02-11T17:57:35.000Z,21.77
2023-02-11T18:02:34.000Z,21.89
2023-02-11T18:07:35.000Z,22.32
2023-02-11T18:12:35.000Z,21.4
2023-02-11T18:17:35.000Z,23.65
2023-02-11T18:22:34.000Z,23.64
2023-02-11T18:27:35.000Z,23.64
2023-02-11T18:32:35.000Z,23.58
2023-02-11T18:37:35.000Z,24.54
2023-02-11T18:42:35.000Z,23.41
2023-02-11T18:47:35.000Z,23.99
2023-02-11T18:52:35.000Z,24.06
2023-02-11T18:57:34.000Z,23.1
2023-02-11T19:02:35.000Z,22.47
2023-02-11T19:07:34.000Z,23.3
2023-02-11T19:12:34.000Z,23
2023-02-11T19:17:34.000Z,23.47
2023-02-11T19:22:35.000Z,23.51
2023-02-11T19:27:35.000Z,23.8
2023-02-11T19:32:35.000Z,24.61
2023-02-11T19:37:35.000Z,24.1
2023-02-11T19:42:37.000Z,24.1
2023-02-11T19:47:35.000Z,24.46
2023-02-11T19:52:35.000Z,25.81
2023-02-11T19:57:35.000Z,25.19
2023-02-11T20:02:34.000Z,25.7
2023-02-11T20:07:35.000Z,24.3
2023-02-11T20:12:34.000Z,25.11
2023-02-11T20:17:35.000Z,25.05
2023-02-11T20:22:35.000Z,26.27
2023-02-11T20:27:35.000Z,25.67
2023-02-11T20:32:35.000Z,23.81
2023-02-11T20:37:34.000Z,25.26
2023-02-11T20:42:35.000Z,25.65
2023-02-11T20:47:35.000Z,24.45
2023-02-11T20:52:35.000Z,25.95
2023-02-11T20:57:34.000Z,25.95
2023-02-11T21:02:35.000Z,24.37
2023-02-11T21:07:34.000Z,25.54
2023-02-11T21:12:35.000Z,23.96
2023-02-11T21:17:35.000Z,23.24
2023-02-11T21:22:35.000Z,22.79
2023-02-11T21:27:35.000Z,24.37
2023-02-11T21:32:35.000Z,22.58
2023-02-11T21:37:35.000Z,26.95
2023-02-11T21:42:35.000Z,23.11
2023-02-11T21:52:35.000Z,22.63
2023-02-11T21:57:35.000Z,22.48
2023-02-11T22:02:35.000Z,21.52
2023-02-11T22:07:34.000Z,23.04
2023-02-11T22:12:35.000Z,22.5
2023-02-11T22:17:35.000Z,22.93
2023-02-11T22:22:35.000Z,20.93
2023-02-11T22:27:34.000Z,20.93
2023-02-11T22:32:35.000Z,21.83
2023-02-11T22:37:34.000Z,21.22
2023-02-11T22:42:34.000Z,22.33
2023-02-11T22:47:35.000Z,34.63
2023-02-11T22:52:35.000Z,23.65
2023-02-11T22:57:35.000Z,21.26
2023-02-11T23:02:35.000Z,21.5
2023-02-11T23:07:35.000Z,21.75
2023-02-11T23:12:35.000Z,20.47
2023-02-11T23:17:35.000Z,21.03
2023-02-11T23:27:35.000Z,21.43
2023-02-11T23:32:35.000Z,23.71
2023-02-11T23:37:34.000Z,22.41
2023-02-11T23:42:34.000Z,23.73
2023-02-11T23:47:35.000Z,24.3
2023-02-11T23:52:34.000Z,23.64
2023-02-11T23:57:35.000Z,24.32
